Current Conditions
Clear
Conditions



Pressure
1019.62 (mb) - 30.11 (inHG)
Visibility

9.9 (mimiles) - 16.0 (km)
   Temperature
66  °F
19°C
59  °F
Dewpoint
78  %
 Humidity
   Wind Speed
3  mph
3  kts
5  km/h
1.3  m/s
   Wind Direction
 90°
Due East
   Airport Data
KAMG
Location Bacon County Airport 16 mi (25.74 km)
Metar :KAMG 231353Z AUTO 09003KT 10SM CLR 19/15 A3011 RMK AO2 SLP194 T01940150
Wed 23rd September 08:53 am
   Raw Metar Info
Raw METAR is the most common format in the world for the transmission of observational weather data. It is highly standardized through the International Civil Aviation Organization (ICAO), which allows it to be understood throughout most of the world.
   API Info
Data Provided by
https://www.checkwx.com/weather/KAMG
   © Info
CSS/SVG/PHP scripts were developed by weather34.com for use in the weather34 template © 2015-2020

Guide Info provided by Metar-Wikipedia